sensor_id;sensor_type;location;lat;lon;timestamp;P1;durP1;ratioP1;P2;durP2;ratioP2
38113;SDS011;23926;53.222;6.354;2024-02-15T00:00:05;302.00;;;264.85;;
38113;SDS011;23926;53.222;6.354;2024-02-15T00:02:31;303.55;;;262.67;;
38113;SDS011;23926;53.222;6.354;2024-02-15T00:04:57;304.90;;;260.70;;
38113;SDS011;23926;53.222;6.354;2024-02-15T00:07:22;306.33;;;272.83;;
38113;SDS011;23926;53.222;6.354;2024-02-15T00:09:48;341.65;;;308.27;;
38113;SDS011;23926;53.222;6.354;2024-02-15T00:12:14;303.27;;;272.92;;
38113;SDS011;23926;53.222;6.354;2024-02-15T00:14:39;320.40;;;286.80;;
38113;SDS011;23926;53.222;6.354;2024-02-15T00:17:05;321.63;;;289.23;;
38113;SDS011;23926;53.222;6.354;2024-02-15T00:19:30;301.35;;;269.23;;
38113;SDS011;23926;53.222;6.354;2024-02-15T00:21:56;324.05;;;290.65;;
38113;SDS011;23926;53.222;6.354;2024-02-15T00:24:22;325.10;;;289.70;;
38113;SDS011;23926;53.222;6.354;2024-02-15T00:26:49;318.40;;;283.52;;
38113;SDS011;23926;53.222;6.354;2024-02-15T00:29:14;305.88;;;273.92;;
38113;SDS011;23926;53.222;6.354;2024-02-15T00:31:39;319.65;;;278.42;;
38113;SDS011;23926;53.222;6.354;2024-02-15T00:34:05;300.75;;;269.40;;
38113;SDS011;23926;53.222;6.354;2024-02-15T00:36:31;305.13;;;265.25;;
38113;SDS011;23926;53.222;6.354;2024-02-15T00:38:58;313.70;;;271.25;;
38113;SDS011;23926;53.222;6.354;2024-02-15T00:41:24;297.38;;;263.90;;
38113;SDS011;23926;53.222;6.354;2024-02-15T00:43:49;309.85;;;277.42;;
38113;SDS011;23926;53.222;6.354;2024-02-15T00:46:18;287.02;;;256.00;;
38113;SDS011;23926;53.222;6.354;2024-02-15T00:48:43;303.35;;;272.08;;
38113;SDS011;23926;53.222;6.354;2024-02-15T00:51:09;299.20;;;267.60;;
38113;SDS011;23926;53.222;6.354;2024-02-15T00:53:34;293.95;;;263.90;;
38113;SDS011;23926;53.222;6.354;2024-02-15T00:55:59;296.73;;;265.73;;
38113;SDS011;23926;53.222;6.354;2024-02-15T00:58:25;289.77;;;259.27;;
38113;SDS011;23926;53.222;6.354;2024-02-15T01:00:52;292.48;;;263.08;;
38113;SDS011;23926;53.222;6.354;2024-02-15T01:03:18;275.33;;;244.85;;
38113;SDS011;23926;53.222;6.354;2024-02-15T01:05:44;299.58;;;268.33;;
38113;SDS011;23926;53.222;6.354;2024-02-15T01:08:10;284.13;;;252.77;;
38113;SDS011;23926;53.222;6.354;2024-02-15T01:10:36;278.83;;;248.27;;
38113;SDS011;23926;53.222;6.354;2024-02-15T01:13:02;290.88;;;260.65;;
38113;SDS011;23926;53.222;6.354;2024-02-15T01:15:27;283.63;;;255.20;;
38113;SDS011;23926;53.222;6.354;2024-02-15T01:17:52;331.70;;;300.10;;
38113;SDS011;23926;53.222;6.354;2024-02-15T01:20:18;310.17;;;280.05;;
38113;SDS011;23926;53.222;6.354;2024-02-15T01:22:43;297.00;;;269.35;;
38113;SDS011;23926;53.222;6.354;2024-02-15T01:25:09;292.25;;;262.58;;
38113;SDS011;23926;53.222;6.354;2024-02-15T01:27:35;293.17;;;265.40;;
38113;SDS011;23926;53.222;6.354;2024-02-15T01:30:01;302.38;;;273.10;;
38113;SDS011;23926;53.222;6.354;2024-02-15T01:32:26;297.33;;;268.55;;
38113;SDS011;23926;53.222;6.354;2024-02-15T01:34:51;269.17;;;240.23;;
38113;SDS011;23926;53.222;6.354;2024-02-15T01:37:20;278.67;;;249.27;;
38113;SDS011;23926;53.222;6.354;2024-02-15T01:39:45;268.25;;;240.30;;
38113;SDS011;23926;53.222;6.354;2024-02-15T01:42:11;268.55;;;239.88;;
38113;SDS011;23926;53.222;6.354;2024-02-15T01:44:39;277.98;;;248.57;;
38113;SDS011;23926;53.222;6.354;2024-02-15T01:47:09;281.42;;;252.02;;
38113;SDS011;23926;53.222;6.354;2024-02-15T01:49:35;270.58;;;242.70;;
38113;SDS011;23926;53.222;6.354;2024-02-15T01:52:01;264.70;;;236.68;;
38113;SDS011;23926;53.222;6.354;2024-02-15T01:54:30;265.45;;;236.50;;
38113;SDS011;23926;53.222;6.354;2024-02-15T01:56:56;267.00;;;239.73;;
38113;SDS011;23926;53.222;6.354;2024-02-15T01:59:22;259.48;;;231.80;;
38113;SDS011;23926;53.222;6.354;2024-02-15T02:01:48;271.20;;;242.65;;
38113;SDS011;23926;53.222;6.354;2024-02-15T02:04:15;283.00;;;256.83;;
38113;SDS011;23926;53.222;6.354;2024-02-15T02:06:40;250.25;;;225.20;;
38113;SDS011;23926;53.222;6.354;2024-02-15T02:09:06;287.52;;;260.67;;
38113;SDS011;23926;53.222;6.354;2024-02-15T02:11:41;249.02;;;223.05;;
38113;SDS011;23926;53.222;6.354;2024-02-15T02:14:09;254.90;;;229.77;;
38113;SDS011;23926;53.222;6.354;2024-02-15T02:16:36;269.17;;;243.70;;
38113;SDS011;23926;53.222;6.354;2024-02-15T02:19:03;250.05;;;225.20;;
38113;SDS011;23926;53.222;6.354;2024-02-15T02:21:33;272.10;;;246.05;;
38113;SDS011;23926;53.222;6.354;2024-02-15T02:24:00;263.17;;;235.18;;
38113;SDS011;23926;53.222;6.354;2024-02-15T02:26:32;252.02;;;226.18;;
38113;SDS011;23926;53.222;6.354;2024-02-15T02:28:59;227.85;;;202.63;;
38113;SDS011;23926;53.222;6.354;2024-02-15T02:31:29;254.82;;;228.50;;
38113;SDS011;23926;53.222;6.354;2024-02-15T02:34:00;261.70;;;233.57;;
38113;SDS011;23926;53.222;6.354;2024-02-15T02:36:25;242.98;;;217.73;;
38113;SDS011;23926;53.222;6.354;2024-02-15T02:38:51;248.77;;;224.10;;
38113;SDS011;23926;53.222;6.354;2024-02-15T02:41:17;224.75;;;200.52;;
38113;SDS011;23926;53.222;6.354;2024-02-15T02:43:44;214.15;;;184.90;;
38113;SDS011;23926;53.222;6.354;2024-02-15T02:46:10;239.40;;;213.52;;
38113;SDS011;23926;53.222;6.354;2024-02-15T02:48:36;221.95;;;197.98;;
38113;SDS011;23926;53.222;6.354;2024-02-15T02:51:02;240.20;;;216.82;;
38113;SDS011;23926;53.222;6.354;2024-02-15T02:53:28;201.43;;;179.27;;
38113;SDS011;23926;53.222;6.354;2024-02-15T02:55:54;220.95;;;196.80;;
38113;SDS011;23926;53.222;6.354;2024-02-15T02:58:21;203.48;;;171.65;;
38113;SDS011;23926;53.222;6.354;2024-02-15T03:00:46;224.30;;;199.63;;
38113;SDS011;23926;53.222;6.354;2024-02-15T03:03:12;219.75;;;197.10;;
38113;SDS011;23926;53.222;6.354;2024-02-15T03:05:37;241.75;;;210.73;;
38113;SDS011;23926;53.222;6.354;2024-02-15T03:08:05;228.30;;;204.20;;
38113;SDS011;23926;53.222;6.354;2024-02-15T03:10:30;252.93;;;227.20;;
38113;SDS011;23926;53.222;6.354;2024-02-15T03:12:56;248.30;;;223.63;;
38113;SDS011;23926;53.222;6.354;2024-02-15T03:15:22;263.05;;;236.52;;
38113;SDS011;23926;53.222;6.354;2024-02-15T03:17:48;246.27;;;221.43;;
38113;SDS011;23926;53.222;6.354;2024-02-15T03:20:13;246.63;;;220.35;;
38113;SDS011;23926;53.222;6.354;2024-02-15T03:22:55;251.93;;;225.75;;
38113;SDS011;23926;53.222;6.354;2024-02-15T03:25:22;247.07;;;221.80;;
38113;SDS011;23926;53.222;6.354;2024-02-15T03:27:55;217.18;;;191.38;;
38113;SDS011;23926;53.222;6.354;2024-02-15T03:30:23;231.57;;;188.32;;
38113;SDS011;23926;53.222;6.354;2024-02-15T03:32:50;228.73;;;203.65;;
38113;SDS011;23926;53.222;6.354;2024-02-15T03:35:16;243.15;;;199.43;;
38113;SDS011;23926;53.222;6.354;2024-02-15T03:37:42;232.60;;;190.73;;
38113;SDS011;23926;53.222;6.354;2024-02-15T03:40:08;230.50;;;187.38;;
38113;SDS011;23926;53.222;6.354;2024-02-15T03:42:34;235.65;;;196.68;;
38113;SDS011;23926;53.222;6.354;2024-02-15T03:45:03;228.88;;;198.32;;
38113;SDS011;23926;53.222;6.354;2024-02-15T03:47:31;216.80;;;192.68;;
38113;SDS011;23926;53.222;6.354;2024-02-15T03:50:01;215.80;;;179.85;;
38113;SDS011;23926;53.222;6.354;2024-02-15T03:52:27;224.48;;;197.52;;
38113;SDS011;23926;53.222;6.354;2024-02-15T03:54:52;218.55;;;185.07;;
38113;SDS011;23926;53.222;6.354;2024-02-15T03:57:18;230.68;;;196.20;;
38113;SDS011;23926;53.222;6.354;2024-02-15T03:59:46;227.07;;;202.88;;
38113;SDS011;23926;53.222;6.354;2024-02-15T04:02:15;222.95;;;198.00;;
38113;SDS011;23926;53.222;6.354;2024-02-15T04:04:41;208.10;;;185.32;;
38113;SDS011;23926;53.222;6.354;2024-02-15T04:07:08;221.50;;;185.20;;
38113;SDS011;23926;53.222;6.354;2024-02-15T04:09:34;215.00;;;191.13;;
38113;SDS011;23926;53.222;6.354;2024-02-15T04:12:01;204.85;;;170.88;;
38113;SDS011;23926;53.222;6.354;2024-02-15T04:14:26;211.35;;;177.27;;
38113;SDS011;23926;53.222;6.354;2024-02-15T04:16:52;209.35;;;185.52;;
38113;SDS011;23926;53.222;6.354;2024-02-15T04:19:18;214.30;;;179.57;;
38113;SDS011;23926;53.222;6.354;2024-02-15T04:21:47;207.82;;;184.43;;
38113;SDS011;23926;53.222;6.354;2024-02-15T04:24:12;217.57;;;195.93;;
38113;SDS011;23926;53.222;6.354;2024-02-15T04:26:38;218.20;;;195.55;;
38113;SDS011;23926;53.222;6.354;2024-02-15T04:29:04;221.98;;;198.98;;
38113;SDS011;23926;53.222;6.354;2024-02-15T04:31:29;226.13;;;203.98;;
38113;SDS011;23926;53.222;6.354;2024-02-15T04:33:56;228.48;;;207.35;;
38113;SDS011;23926;53.222;6.354;2024-02-15T04:36:21;243.05;;;221.70;;
38113;SDS011;23926;53.222;6.354;2024-02-15T04:38:51;245.30;;;223.20;;
38113;SDS011;23926;53.222;6.354;2024-02-15T04:41:17;242.93;;;220.48;;
38113;SDS011;23926;53.222;6.354;2024-02-15T04:43:46;258.08;;;235.27;;
38113;SDS011;23926;53.222;6.354;2024-02-15T04:46:12;263.77;;;240.65;;
38113;SDS011;23926;53.222;6.354;2024-02-15T04:48:39;261.45;;;238.43;;
38113;SDS011;23926;53.222;6.354;2024-02-15T04:51:06;266.05;;;243.02;;
38113;SDS011;23926;53.222;6.354;2024-02-15T04:53:32;263.27;;;241.18;;
38113;SDS011;23926;53.222;6.354;2024-02-15T04:55:57;269.50;;;249.15;;
38113;SDS011;23926;53.222;6.354;2024-02-15T04:58:25;280.17;;;260.80;;
38113;SDS011;23926;53.222;6.354;2024-02-15T05:00:53;274.65;;;258.17;;
38113;SDS011;23926;53.222;6.354;2024-02-15T05:03:23;253.63;;;240.57;;
38113;SDS011;23926;53.222;6.354;2024-02-15T05:05:49;195.60;;;186.32;;
38113;SDS011;23926;53.222;6.354;2024-02-15T05:08:15;201.38;;;191.35;;
38113;SDS011;23926;53.222;6.354;2024-02-15T05:10:40;224.43;;;213.68;;
38113;SDS011;23926;53.222;6.354;2024-02-15T05:13:06;214.30;;;204.15;;
38113;SDS011;23926;53.222;6.354;2024-02-15T05:15:31;227.80;;;216.80;;
38113;SDS011;23926;53.222;6.354;2024-02-15T05:17:58;246.18;;;233.65;;
38113;SDS011;23926;53.222;6.354;2024-02-15T05:20:23;262.02;;;249.18;;
38113;SDS011;23926;53.222;6.354;2024-02-15T05:22:52;239.73;;;227.85;;
38113;SDS011;23926;53.222;6.354;2024-02-15T05:25:17;216.75;;;206.27;;
38113;SDS011;23926;53.222;6.354;2024-02-15T05:27:47;198.68;;;189.07;;
38113;SDS011;23926;53.222;6.354;2024-02-15T05:30:13;259.45;;;244.27;;
38113;SDS011;23926;53.222;6.354;2024-02-15T05:32:40;251.20;;;237.85;;
38113;SDS011;23926;53.222;6.354;2024-02-15T05:35:10;239.23;;;227.27;;
38113;SDS011;23926;53.222;6.354;2024-02-15T05:37:36;240.60;;;227.82;;
38113;SDS011;23926;53.222;6.354;2024-02-15T05:40:04;248.27;;;234.82;;
38113;SDS011;23926;53.222;6.354;2024-02-15T05:42:32;249.75;;;236.25;;
38113;SDS011;23926;53.222;6.354;2024-02-15T05:45:14;245.30;;;232.27;;
38113;SDS011;23926;53.222;6.354;2024-02-15T05:48:03;236.23;;;223.65;;
38113;SDS011;23926;53.222;6.354;2024-02-15T05:50:31;234.38;;;221.80;;
38113;SDS011;23926;53.222;6.354;2024-02-15T05:52:57;245.85;;;231.60;;
38113;SDS011;23926;53.222;6.354;2024-02-15T05:55:23;252.95;;;238.05;;
38113;SDS011;23926;53.222;6.354;2024-02-15T05:57:51;278.83;;;260.25;;
38113;SDS011;23926;53.222;6.354;2024-02-15T06:00:16;241.68;;;228.70;;
38113;SDS011;23926;53.222;6.354;2024-02-15T06:02:43;256.15;;;242.43;;
38113;SDS011;23926;53.222;6.354;2024-02-15T06:05:09;291.13;;;270.73;;
38113;SDS011;23926;53.222;6.354;2024-02-15T06:07:35;294.90;;;275.30;;
38113;SDS011;23926;53.222;6.354;2024-02-15T06:10:00;317.92;;;292.85;;
38113;SDS011;23926;53.222;6.354;2024-02-15T06:12:28;340.27;;;312.52;;
38113;SDS011;23926;53.222;6.354;2024-02-15T06:14:54;337.30;;;314.60;;
38113;SDS011;23926;53.222;6.354;2024-02-15T06:17:20;335.25;;;313.95;;
38113;SDS011;23926;53.222;6.354;2024-02-15T06:19:45;348.73;;;323.73;;
38113;SDS011;23926;53.222;6.354;2024-02-15T06:22:11;333.70;;;313.55;;
38113;SDS011;23926;53.222;6.354;2024-02-15T06:24:37;377.92;;;353.77;;
38113;SDS011;23926;53.222;6.354;2024-02-15T06:27:03;366.45;;;339.75;;
38113;SDS011;23926;53.222;6.354;2024-02-15T06:29:28;362.52;;;337.92;;
38113;SDS011;23926;53.222;6.354;2024-02-15T06:32:12;364.60;;;337.27;;
38113;SDS011;23926;53.222;6.354;2024-02-15T06:37:40;348.35;;;322.00;;
38113;SDS011;23926;53.222;6.354;2024-02-15T06:42:50;358.35;;;334.63;;
38113;SDS011;23926;53.222;6.354;2024-02-15T06:45:16;353.48;;;326.48;;
38113;SDS011;23926;53.222;6.354;2024-02-15T06:47:44;342.40;;;314.10;;
38113;SDS011;23926;53.222;6.354;2024-02-15T06:50:11;346.10;;;314.75;;
38113;SDS011;23926;53.222;6.354;2024-02-15T06:52:37;335.63;;;306.70;;
38113;SDS011;23926;53.222;6.354;2024-02-15T06:55:03;345.77;;;318.65;;
38113;SDS011;23926;53.222;6.354;2024-02-15T06:57:33;355.20;;;325.55;;
38113;SDS011;23926;53.222;6.354;2024-02-15T07:00:01;345.42;;;316.48;;
38113;SDS011;23926;53.222;6.354;2024-02-15T07:02:28;337.98;;;308.80;;
38113;SDS011;23926;53.222;6.354;2024-02-15T07:04:53;336.92;;;307.15;;
38113;SDS011;23926;53.222;6.354;2024-02-15T07:07:19;345.77;;;320.35;;
38113;SDS011;23926;53.222;6.354;2024-02-15T07:09:44;352.55;;;327.23;;
38113;SDS011;23926;53.222;6.354;2024-02-15T07:12:10;351.90;;;330.23;;
38113;SDS011;23926;53.222;6.354;2024-02-15T07:14:36;343.15;;;323.83;;
38113;SDS011;23926;53.222;6.354;2024-02-15T07:17:01;338.67;;;318.38;;
38113;SDS011;23926;53.222;6.354;2024-02-15T07:19:27;329.05;;;310.50;;
38113;SDS011;23926;53.222;6.354;2024-02-15T07:21:52;362.35;;;341.95;;
38113;SDS011;23926;53.222;6.354;2024-02-15T07:24:17;363.73;;;342.73;;
38113;SDS011;23926;53.222;6.354;2024-02-15T07:26:44;363.33;;;343.25;;
38113;SDS011;23926;53.222;6.354;2024-02-15T07:29:09;326.90;;;310.60;;
38113;SDS011;23926;53.222;6.354;2024-02-15T07:31:36;299.63;;;285.35;;
38113;SDS011;23926;53.222;6.354;2024-02-15T07:34:01;315.23;;;298.65;;
38113;SDS011;23926;53.222;6.354;2024-02-15T07:36:28;272.00;;;259.30;;
38113;SDS011;23926;53.222;6.354;2024-02-15T07:38:54;253.48;;;241.30;;
38113;SDS011;23926;53.222;6.354;2024-02-15T07:41:21;231.50;;;220.60;;
38113;SDS011;23926;53.222;6.354;2024-02-15T07:43:47;245.60;;;233.15;;
38113;SDS011;23926;53.222;6.354;2024-02-15T07:46:16;236.30;;;224.95;;
38113;SDS011;23926;53.222;6.354;2024-02-15T07:48:42;263.83;;;250.75;;
38113;SDS011;23926;53.222;6.354;2024-02-15T07:51:12;270.13;;;256.58;;
38113;SDS011;23926;53.222;6.354;2024-02-15T07:53:41;270.50;;;256.52;;
38113;SDS011;23926;53.222;6.354;2024-02-15T07:56:08;312.77;;;293.83;;
38113;SDS011;23926;53.222;6.354;2024-02-15T07:58:37;299.38;;;281.58;;
38113;SDS011;23926;53.222;6.354;2024-02-15T08:01:04;291.08;;;274.60;;
38113;SDS011;23926;53.222;6.354;2024-02-15T08:03:30;313.65;;;295.60;;
38113;SDS011;23926;53.222;6.354;2024-02-15T08:05:56;307.00;;;287.77;;
38113;SDS011;23926;53.222;6.354;2024-02-15T08:08:21;293.88;;;278.45;;
38113;SDS011;23926;53.222;6.354;2024-02-15T08:10:46;281.58;;;267.25;;
38113;SDS011;23926;53.222;6.354;2024-02-15T08:13:13;318.90;;;295.73;;
38113;SDS011;23926;53.222;6.354;2024-02-15T08:15:40;318.00;;;295.92;;
38113;SDS011;23926;53.222;6.354;2024-02-15T08:18:05;302.95;;;284.73;;
38113;SDS011;23926;53.222;6.354;2024-02-15T08:20:34;285.83;;;269.77;;
38113;SDS011;23926;53.222;6.354;2024-02-15T08:22:59;264.73;;;251.15;;
38113;SDS011;23926;53.222;6.354;2024-02-15T08:25:25;263.50;;;248.98;;
38113;SDS011;23926;53.222;6.354;2024-02-15T08:27:51;225.52;;;214.65;;
38113;SDS011;23926;53.222;6.354;2024-02-15T08:30:17;239.95;;;227.88;;
38113;SDS011;23926;53.222;6.354;2024-02-15T08:32:43;275.48;;;260.08;;
38113;SDS011;23926;53.222;6.354;2024-02-15T08:35:13;298.40;;;277.60;;
38113;SDS011;23926;53.222;6.354;2024-02-15T08:37:39;272.52;;;257.70;;
38113;SDS011;23926;53.222;6.354;2024-02-15T08:40:07;294.73;;;277.48;;
38113;SDS011;23926;53.222;6.354;2024-02-15T08:42:42;274.42;;;259.55;;
38113;SDS011;23926;53.222;6.354;2024-02-15T08:45:08;298.15;;;282.05;;
38113;SDS011;23926;53.222;6.354;2024-02-15T08:47:35;306.98;;;286.67;;
38113;SDS011;23926;53.222;6.354;2024-02-15T08:50:04;302.40;;;284.08;;
38113;SDS011;23926;53.222;6.354;2024-02-15T08:52:31;310.55;;;290.27;;
38113;SDS011;23926;53.222;6.354;2024-02-15T08:54:56;311.90;;;293.90;;
38113;SDS011;23926;53.222;6.354;2024-02-15T08:57:24;301.15;;;279.48;;
38113;SDS011;23926;53.222;6.354;2024-02-15T08:59:49;301.90;;;280.75;;
38113;SDS011;23926;53.222;6.354;2024-02-15T09:02:16;294.15;;;273.00;;
38113;SDS011;23926;53.222;6.354;2024-02-15T09:04:42;297.25;;;275.60;;
38113;SDS011;23926;53.222;6.354;2024-02-15T09:07:08;317.20;;;295.67;;
38113;SDS011;23926;53.222;6.354;2024-02-15T09:09:34;312.02;;;291.45;;
38113;SDS011;23926;53.222;6.354;2024-02-15T09:12:01;311.50;;;292.25;;
38113;SDS011;23926;53.222;6.354;2024-02-15T09:14:31;308.00;;;291.17;;
38113;SDS011;23926;53.222;6.354;2024-02-15T09:17:00;329.73;;;308.52;;
38113;SDS011;23926;53.222;6.354;2024-02-15T09:19:25;278.55;;;264.38;;
38113;SDS011;23926;53.222;6.354;2024-02-15T09:21:51;307.60;;;285.52;;
38113;SDS011;23926;53.222;6.354;2024-02-15T09:24:16;311.45;;;291.85;;
38113;SDS011;23926;53.222;6.354;2024-02-15T09:26:42;283.67;;;269.15;;
38113;SDS011;23926;53.222;6.354;2024-02-15T09:29:09;312.55;;;292.85;;
38113;SDS011;23926;53.222;6.354;2024-02-15T09:31:34;285.30;;;271.35;;
38113;SDS011;23926;53.222;6.354;2024-02-15T09:34:01;266.90;;;254.43;;
38113;SDS011;23926;53.222;6.354;2024-02-15T09:36:33;268.45;;;255.38;;
38113;SDS011;23926;53.222;6.354;2024-02-15T09:38:59;174.32;;;165.90;;
38113;SDS011;23926;53.222;6.354;2024-02-15T09:41:24;249.70;;;237.77;;
38113;SDS011;23926;53.222;6.354;2024-02-15T09:43:50;180.23;;;171.52;;
38113;SDS011;23926;53.222;6.354;2024-02-15T09:46:17;256.63;;;243.65;;
38113;SDS011;23926;53.222;6.354;2024-02-15T09:48:42;293.63;;;277.20;;
38113;SDS011;23926;53.222;6.354;2024-02-15T09:51:14;236.88;;;225.80;;
38113;SDS011;23926;53.222;6.354;2024-02-15T09:53:41;202.02;;;191.80;;
38113;SDS011;23926;53.222;6.354;2024-02-15T09:56:06;261.48;;;248.93;;
38113;SDS011;23926;53.222;6.354;2024-02-15T09:58:32;227.40;;;216.57;;
38113;SDS011;23926;53.222;6.354;2024-02-15T10:01:01;178.57;;;170.05;;
38113;SDS011;23926;53.222;6.354;2024-02-15T10:03:31;179.57;;;171.25;;
38113;SDS011;23926;53.222;6.354;2024-02-15T10:05:57;271.42;;;257.40;;
38113;SDS011;23926;53.222;6.354;2024-02-15T10:08:22;169.20;;;161.45;;
38113;SDS011;23926;53.222;6.354;2024-02-15T10:11:04;221.13;;;210.07;;
38113;SDS011;23926;53.222;6.354;2024-02-15T10:13:31;135.05;;;128.38;;
38113;SDS011;23926;53.222;6.354;2024-02-15T10:15:57;265.88;;;252.43;;
38113;SDS011;23926;53.222;6.354;2024-02-15T10:18:22;156.35;;;149.05;;
38113;SDS011;23926;53.222;6.354;2024-02-15T10:20:57;237.75;;;225.60;;
38113;SDS011;23926;53.222;6.354;2024-02-15T10:23:22;141.85;;;135.52;;
38113;SDS011;23926;53.222;6.354;2024-02-15T10:25:48;112.80;;;107.57;;
38113;SDS011;23926;53.222;6.354;2024-02-15T10:28:14;262.15;;;248.13;;
38113;SDS011;23926;53.222;6.354;2024-02-15T10:30:48;196.32;;;187.32;;
38113;SDS011;23926;53.222;6.354;2024-02-15T10:33:28;118.00;;;112.40;;
38113;SDS011;23926;53.222;6.354;2024-02-15T10:36:09;166.75;;;158.30;;
38113;SDS011;23926;53.222;6.354;2024-02-15T10:38:38;230.43;;;219.05;;
38113;SDS011;23926;53.222;6.354;2024-02-15T10:41:04;211.93;;;202.35;;
38113;SDS011;23926;53.222;6.354;2024-02-15T10:43:30;218.90;;;209.00;;
38113;SDS011;23926;53.222;6.354;2024-02-15T10:45:57;267.48;;;253.65;;
38113;SDS011;23926;53.222;6.354;2024-02-15T10:48:23;279.40;;;264.55;;
38113;SDS011;23926;53.222;6.354;2024-02-15T10:50:49;175.93;;;167.88;;
38113;SDS011;23926;53.222;6.354;2024-02-15T10:53:26;290.30;;;271.27;;
38113;SDS011;23926;53.222;6.354;2024-02-15T10:56:06;299.58;;;280.80;;
38113;SDS011;23926;53.222;6.354;2024-02-15T10:58:53;290.15;;;274.60;;
38113;SDS011;23926;53.222;6.354;2024-02-15T11:01:25;289.63;;;274.05;;
38113;SDS011;23926;53.222;6.354;2024-02-15T11:04:04;292.10;;;273.23;;
38113;SDS011;23926;53.222;6.354;2024-02-15T11:06:33;241.32;;;223.23;;
38113;SDS011;23926;53.222;6.354;2024-02-15T11:09:00;235.15;;;213.27;;
38113;SDS011;23926;53.222;6.354;2024-02-15T11:11:28;248.05;;;226.80;;
38113;SDS011;23926;53.222;6.354;2024-02-15T11:16:54;204.70;;;182.77;;
38113;SDS011;23926;53.222;6.354;2024-02-15T11:22:08;230.52;;;208.75;;
38113;SDS011;23926;53.222;6.354;2024-02-15T11:24:36;243.00;;;223.45;;
38113;SDS011;23926;53.222;6.354;2024-02-15T11:27:02;234.75;;;214.40;;
38113;SDS011;23926;53.222;6.354;2024-02-15T11:29:51;231.80;;;210.18;;
38113;SDS011;23926;53.222;6.354;2024-02-15T11:35:15;205.00;;;182.35;;
38113;SDS011;23926;53.222;6.354;2024-02-15T11:45:14;218.55;;;196.30;;
38113;SDS011;23926;53.222;6.354;2024-02-15T11:47:45;227.77;;;206.20;;
38113;SDS011;23926;53.222;6.354;2024-02-15T11:50:15;232.25;;;210.32;;
38113;SDS011;23926;53.222;6.354;2024-02-15T11:52:42;226.27;;;205.35;;
38113;SDS011;23926;53.222;6.354;2024-02-15T11:55:14;223.38;;;201.43;;
38113;SDS011;23926;53.222;6.354;2024-02-15T11:57:44;223.27;;;202.00;;
38113;SDS011;23926;53.222;6.354;2024-02-15T12:03:32;220.43;;;200.65;;
38113;SDS011;23926;53.222;6.354;2024-02-15T12:06:19;187.52;;;170.07;;
38113;SDS011;23926;53.222;6.354;2024-02-15T12:09:03;214.05;;;194.20;;
38113;SDS011;23926;53.222;6.354;2024-02-15T12:14:31;204.82;;;185.30;;
38113;SDS011;23926;53.222;6.354;2024-02-15T12:17:15;224.40;;;203.50;;
38113;SDS011;23926;53.222;6.354;2024-02-15T12:19:59;213.90;;;193.98;;
38113;SDS011;23926;53.222;6.354;2024-02-15T12:22:31;228.95;;;208.32;;
38113;SDS011;23926;53.222;6.354;2024-02-15T12:25:05;233.50;;;212.25;;
38113;SDS011;23926;53.222;6.354;2024-02-15T12:27:45;222.02;;;200.55;;
38113;SDS011;23926;53.222;6.354;2024-02-15T12:30:15;217.55;;;195.10;;
38113;SDS011;23926;53.222;6.354;2024-02-15T12:32:40;233.05;;;209.07;;
38113;SDS011;23926;53.222;6.354;2024-02-15T12:35:12;253.68;;;231.15;;
38113;SDS011;23926;53.222;6.354;2024-02-15T12:37:44;242.38;;;220.75;;
38113;SDS011;23926;53.222;6.354;2024-02-15T12:40:11;264.30;;;246.15;;
38113;SDS011;23926;53.222;6.354;2024-02-15T12:42:41;242.05;;;222.23;;
38113;SDS011;23926;53.222;6.354;2024-02-15T12:45:14;261.27;;;242.88;;
38113;SDS011;23926;53.222;6.354;2024-02-15T12:47:43;268.85;;;252.40;;
38113;SDS011;23926;53.222;6.354;2024-02-15T12:50:12;248.63;;;229.98;;
38113;SDS011;23926;53.222;6.354;2024-02-15T12:52:39;260.48;;;244.45;;
38113;SDS011;23926;53.222;6.354;2024-02-15T12:57:44;257.58;;;239.20;;
38113;SDS011;23926;53.222;6.354;2024-02-15T13:00:14;271.35;;;251.35;;
38113;SDS011;23926;53.222;6.354;2024-02-15T13:02:43;260.45;;;241.40;;
38113;SDS011;23926;53.222;6.354;2024-02-15T13:05:10;250.05;;;233.05;;
38113;SDS011;23926;53.222;6.354;2024-02-15T13:07:36;263.85;;;243.15;;
38113;SDS011;23926;53.222;6.354;2024-02-15T13:10:02;245.35;;;225.10;;
38113;SDS011;23926;53.222;6.354;2024-02-15T13:12:31;231.23;;;211.48;;
38113;SDS011;23926;53.222;6.354;2024-02-15T13:14:59;234.63;;;213.65;;
38113;SDS011;23926;53.222;6.354;2024-02-15T13:17:28;236.35;;;214.98;;
38113;SDS011;23926;53.222;6.354;2024-02-15T13:19:54;247.07;;;227.50;;
38113;SDS011;23926;53.222;6.354;2024-02-15T13:22:27;243.85;;;224.60;;
38113;SDS011;23926;53.222;6.354;2024-02-15T13:24:53;248.75;;;231.52;;
38113;SDS011;23926;53.222;6.354;2024-02-15T13:27:20;257.83;;;241.55;;
38113;SDS011;23926;53.222;6.354;2024-02-15T13:29:46;244.52;;;231.10;;
38113;SDS011;23926;53.222;6.354;2024-02-15T13:32:12;256.45;;;239.57;;
38113;SDS011;23926;53.222;6.354;2024-02-15T13:34:39;245.77;;;232.93;;
38113;SDS011;23926;53.222;6.354;2024-02-15T13:37:05;217.32;;;206.65;;
38113;SDS011;23926;53.222;6.354;2024-02-15T13:39:30;207.23;;;196.90;;
38113;SDS011;23926;53.222;6.354;2024-02-15T13:42:01;207.15;;;196.95;;
38113;SDS011;23926;53.222;6.354;2024-02-15T13:44:27;164.73;;;156.90;;
38113;SDS011;23926;53.222;6.354;2024-02-15T13:46:52;261.60;;;247.68;;
38113;SDS011;23926;53.222;6.354;2024-02-15T13:49:21;263.33;;;247.45;;
38113;SDS011;23926;53.222;6.354;2024-02-15T13:51:46;218.30;;;207.30;;
38113;SDS011;23926;53.222;6.354;2024-02-15T13:54:12;242.02;;;228.82;;
38113;SDS011;23926;53.222;6.354;2024-02-15T13:56:37;151.65;;;144.65;;
38113;SDS011;23926;53.222;6.354;2024-02-15T13:59:04;141.82;;;135.07;;
38113;SDS011;23926;53.222;6.354;2024-02-15T14:01:30;144.27;;;137.43;;
38113;SDS011;23926;53.222;6.354;2024-02-15T14:03:56;193.15;;;183.70;;
38113;SDS011;23926;53.222;6.354;2024-02-15T14:06:21;136.15;;;129.73;;
38113;SDS011;23926;53.222;6.354;2024-02-15T14:08:46;133.00;;;126.80;;
38113;SDS011;23926;53.222;6.354;2024-02-15T14:11:12;192.40;;;183.05;;
38113;SDS011;23926;53.222;6.354;2024-02-15T14:13:37;228.43;;;215.63;;
38113;SDS011;23926;53.222;6.354;2024-02-15T14:16:02;232.43;;;219.40;;
38113;SDS011;23926;53.222;6.354;2024-02-15T14:18:29;235.13;;;221.13;;
38113;SDS011;23926;53.222;6.354;2024-02-15T14:20:55;259.48;;;240.93;;
38113;SDS011;23926;53.222;6.354;2024-02-15T14:23:21;256.38;;;239.98;;
38113;SDS011;23926;53.222;6.354;2024-02-15T14:25:46;259.25;;;242.93;;
38113;SDS011;23926;53.222;6.354;2024-02-15T14:28:13;249.63;;;236.43;;